createdAt,value
2023-01-21T00:02:27.527Z,13.63
2023-01-21T00:07:29.177Z,13.70
2023-01-21T00:12:30.843Z,13.43
2023-01-21T00:17:35.909Z,13.47
2023-01-21T00:22:37.665Z,12.87
2023-01-21T00:27:39.593Z,13.40
2023-01-21T00:32:41.228Z,13.80
2023-01-21T00:37:42.913Z,13.33
2023-01-21T00:42:44.534Z,13.73
2023-01-21T00:47:46.172Z,12.33
2023-01-21T00:52:47.741Z,12.03
2023-01-21T00:57:49.365Z,11.93
2023-01-21T01:02:51.294Z,11.00
2023-01-21T01:07:53.046Z,11.83
2023-01-21T01:12:54.721Z,13.47
2023-01-21T01:17:56.439Z,11.50
2023-01-21T01:22:58.665Z,11.90
2023-01-21T01:28:00.491Z,11.93
2023-01-21T01:33:02.436Z,11.87
2023-01-21T01:38:07.932Z,11.17
2023-01-21T01:43:17.878Z,12.07
2023-01-21T01:48:31.283Z,11.53
2023-01-21T01:53:33.578Z,11.10
2023-01-21T01:58:36.055Z,11.13
2023-01-21T02:03:44.601Z,11.13
2023-01-21T02:08:47.379Z,11.43
2023-01-21T02:13:54.857Z,10.53
2023-01-21T02:19:23.240Z,10.20
2023-01-21T02:24:42.774Z,9.33
2023-01-21T02:30:23.642Z,10.53
2023-01-21T02:35:43.405Z,9.77
2023-01-21T02:41:34.810Z,9.40
2023-01-21T02:46:51.078Z,9.60
2023-01-21T02:51:52.682Z,9.73
2023-01-21T02:56:54.418Z,9.47
2023-01-21T03:02:04.827Z,10.60
2023-01-21T03:07:30.257Z,8.97
2023-01-21T03:12:41.568Z,9.53
2023-01-21T03:17:49.270Z,9.53
2023-01-21T03:22:53.395Z,9.60
2023-01-21T03:27:56.386Z,9.73
2023-01-21T03:32:58.878Z,9.43
2023-01-21T03:38:03.357Z,8.83
2023-01-21T03:43:04.986Z,8.70
2023-01-21T03:48:21.450Z,8.97
2023-01-21T03:53:23.161Z,8.60
2023-01-21T03:58:24.768Z,8.67
2023-01-21T04:03:26.448Z,8.57
2023-01-21T04:08:27.974Z,8.60
2023-01-21T04:13:29.586Z,9.10
2023-01-21T04:18:31.137Z,8.77
2023-01-21T04:23:32.779Z,8.23
2023-01-21T04:28:34.469Z,8.60
2023-01-21T04:33:36.015Z,8.70
2023-01-21T04:38:37.533Z,7.67
2023-01-21T04:43:39.149Z,7.97
2023-01-21T04:48:40.689Z,8.67
2023-01-21T04:53:42.220Z,8.37
2023-01-21T04:58:43.875Z,8.93
2023-01-21T05:03:45.463Z,9.33
2023-01-21T05:08:47.070Z,8.33
2023-01-21T05:13:48.621Z,8.77
2023-01-21T05:18:50.481Z,9.13
2023-01-21T05:23:52.034Z,9.30
2023-01-21T05:28:53.534Z,7.60
2023-01-21T05:33:56.587Z,8.50
2023-01-21T05:38:58.385Z,8.67
2023-01-21T05:43:59.985Z,8.87
2023-01-21T05:49:02.046Z,8.40
2023-01-21T05:54:03.656Z,8.33
2023-01-21T05:59:05.450Z,8.53
2023-01-21T06:04:07.017Z,8.80
2023-01-21T06:09:08.569Z,8.10
2023-01-21T06:14:10.369Z,8.00
2023-01-21T06:19:12.166Z,7.50
2023-01-21T06:24:13.729Z,7.47
2023-01-21T06:29:15.354Z,7.73
2023-01-21T06:34:17.794Z,8.80
2023-01-21T06:39:19.410Z,8.03
2023-01-21T06:44:21.070Z,8.00
2023-01-21T06:49:22.678Z,8.33
2023-01-21T06:54:24.269Z,7.60
2023-01-21T06:59:26.005Z,9.07
2023-01-21T07:04:28.390Z,8.07
2023-01-21T07:09:30.050Z,8.83
2023-01-21T07:14:31.950Z,10.30
2023-01-21T07:19:33.480Z,9.77
2023-01-21T07:24:35.079Z,13.85
2023-01-21T07:29:36.613Z,10.77
2023-01-21T07:34:38.159Z,9.77
2023-01-21T07:39:39.703Z,9.83
2023-01-21T07:44:41.495Z,9.57
2023-01-21T07:49:43.185Z,8.87
2023-01-21T07:54:44.686Z,8.77
2023-01-21T07:59:46.405Z,9.57
2023-01-21T08:04:48.184Z,9.17
2023-01-21T08:09:49.798Z,10.93
2023-01-21T08:14:51.537Z,9.83
2023-01-21T08:19:53.095Z,10.27
2023-01-21T08:24:54.641Z,9.40
2023-01-21T08:29:56.329Z,10.23
2023-01-21T08:34:57.918Z,10.17
2023-01-21T08:39:59.540Z,10.27
2023-01-21T08:45:01.156Z,10.60
2023-01-21T08:50:03.449Z,9.97
2023-01-21T08:55:05.307Z,10.67
2023-01-21T09:00:07.584Z,9.53
2023-01-21T09:05:09.351Z,9.53
2023-01-21T09:10:11.258Z,9.63
2023-01-21T09:15:12.821Z,10.67
2023-01-21T09:20:14.439Z,10.23
2023-01-21T09:25:16.321Z,10.27
2023-01-21T09:30:18.254Z,11.50
2023-01-21T09:35:19.823Z,11.20
2023-01-21T09:40:21.344Z,10.27
2023-01-21T09:45:23.109Z,10.60
2023-01-21T09:50:24.705Z,11.53
2023-01-21T09:55:32.286Z,11.87
2023-01-21T10:00:40.079Z,11.57
2023-01-21T10:05:53.360Z,10.87
2023-01-21T10:11:00.772Z,10.83
2023-01-21T10:16:11.266Z,11.30
2023-01-21T10:21:28.023Z,11.40
2023-01-21T10:26:30.193Z,11.57
2023-01-21T10:31:39.952Z,12.13
2023-01-21T10:36:47.533Z,13.20
2023-01-21T10:42:09.980Z,11.27
2023-01-21T10:47:28.536Z,10.67
2023-01-21T10:52:50.401Z,11.40
2023-01-21T10:58:03.709Z,11.17
2023-01-21T11:03:17.206Z,11.93
2023-01-21T11:08:23.924Z,11.00
2023-01-21T11:13:25.574Z,11.40
2023-01-21T11:18:31.676Z,11.07
2023-01-21T11:23:35.262Z,11.77
2023-01-21T11:28:36.911Z,11.30
2023-01-21T11:33:38.874Z,10.80
2023-01-21T11:38:40.992Z,11.37
2023-01-21T11:43:47.717Z,12.07
2023-01-21T11:48:49.756Z,11.23
2023-01-21T11:54:08.968Z,11.13
2023-01-21T11:59:32.963Z,11.53
2023-01-21T12:04:36.383Z,10.50
2023-01-21T12:09:38.166Z,10.57
2023-01-21T12:15:14.018Z,10.87
2023-01-21T12:20:40.382Z,9.23
2023-01-21T12:25:51.230Z,10.70
2023-01-21T12:31:11.256Z,10.90
2023-01-21T12:36:20.877Z,10.20
2023-01-21T12:41:30.821Z,10.83
2023-01-21T12:46:38.887Z,10.00
2023-01-21T12:51:42.829Z,11.07
2023-01-21T12:56:49.791Z,10.20
2023-01-21T13:01:59.552Z,9.83
2023-01-21T13:07:31.999Z,11.40
2023-01-21T13:12:35.420Z,11.27
2023-01-21T13:17:38.438Z,10.50
2023-01-21T13:23:02.164Z,10.07
2023-01-21T13:28:24.927Z,10.47
2023-01-21T13:33:40.221Z,9.10
2023-01-21T13:39:00.995Z,9.67
2023-01-21T13:44:28.907Z,9.40
2023-01-21T13:49:45.459Z,9.17
2023-01-21T13:54:51.865Z,9.23
2023-01-21T14:00:06.392Z,8.50
2023-01-21T14:05:20.553Z,7.70
2023-01-21T14:10:40.526Z,7.27
2023-01-21T14:16:05.244Z,6.70
2023-01-21T14:21:12.476Z,6.40
2023-01-21T14:26:37.260Z,6.63
2023-01-21T14:31:43.258Z,6.70
2023-01-21T14:37:03.137Z,6.50
2023-01-21T14:42:04.692Z,6.60
2023-01-21T14:47:18.703Z,7.00
2023-01-21T14:52:27.415Z,6.80
2023-01-21T14:57:34.312Z,6.27
2023-01-21T15:02:40.700Z,6.00
2023-01-21T15:07:45.956Z,6.63
2023-01-21T15:12:55.478Z,6.80
2023-01-21T15:18:05.767Z,6.20
2023-01-21T15:23:21.198Z,6.60
2023-01-21T15:28:25.497Z,6.10
2023-01-21T15:33:28.160Z,6.30
2023-01-21T15:38:29.773Z,6.47
2023-01-21T15:43:51.905Z,6.70
2023-01-21T15:49:26.104Z,6.90
2023-01-21T15:54:32.573Z,7.60
2023-01-21T16:00:16.620Z,7.20
2023-01-21T16:05:21.132Z,6.93
2023-01-21T16:10:40.342Z,8.10
2023-01-21T16:15:48.396Z,7.57
2023-01-21T16:20:53.242Z,8.63
2023-01-21T16:25:54.962Z,7.67
2023-01-21T16:30:59.096Z,9.33
2023-01-21T16:36:04.891Z,8.87
2023-01-21T16:41:06.427Z,8.70
2023-01-21T16:46:20.824Z,10.30
2023-01-21T16:51:25.014Z,10.07
2023-01-21T16:56:28.514Z,9.33
2023-01-21T17:01:30.924Z,9.03
2023-01-21T17:06:32.927Z,8.73
2023-01-21T17:11:36.538Z,8.20
2023-01-21T17:16:39.664Z,8.83
2023-01-21T17:21:46.689Z,9.13
2023-01-21T17:26:49.825Z,8.77
2023-01-21T17:31:59.109Z,8.80
2023-01-21T17:37:01.063Z,8.77
2023-01-21T17:42:04.480Z,9.57
2023-01-21T17:47:06.035Z,9.33
2023-01-21T17:52:18.780Z,9.30
2023-01-21T17:57:35.172Z,9.27
2023-01-21T18:02:36.762Z,9.27
2023-01-21T18:07:38.382Z,9.13
2023-01-21T18:12:39.950Z,10.60
2023-01-21T18:17:46.273Z,9.60
2023-01-21T18:22:48.877Z,8.47
2023-01-21T18:27:56.278Z,8.43
2023-01-21T18:32:57.821Z,8.70
2023-01-21T18:38:00.427Z,8.67
2023-01-21T18:43:02.982Z,9.47
2023-01-21T18:48:10.244Z,8.77
2023-01-21T18:53:12.945Z,8.27
2023-01-21T18:58:14.820Z,8.20
2023-01-21T19:03:17.056Z,9.20
2023-01-21T19:08:27.553Z,8.77
2023-01-21T19:13:29.211Z,10.17
2023-01-21T19:18:30.737Z,10.30
2023-01-21T19:23:32.398Z,10.23
2023-01-21T19:28:34.255Z,9.87
2023-01-21T19:33:35.834Z,9.20
2023-01-21T19:38:37.732Z,8.83
2023-01-21T19:43:39.502Z,9.50
2023-01-21T19:48:41.325Z,8.60
2023-01-21T19:53:44.005Z,9.27
2023-01-21T19:58:45.693Z,8.47
2023-01-21T20:03:59.336Z,8.30
2023-01-21T20:09:03.968Z,9.10
2023-01-21T20:14:05.526Z,9.30
2023-01-21T20:19:11.371Z,10.40
2023-01-21T20:24:12.989Z,8.83
2023-01-21T20:29:16.665Z,8.73
2023-01-21T20:34:18.308Z,9.27
2023-01-21T20:39:19.988Z,10.10
2023-01-21T20:44:21.863Z,9.33
2023-01-21T20:49:23.431Z,8.97
2023-01-21T20:54:26.668Z,10.00
2023-01-21T20:59:28.236Z,10.43
2023-01-21T21:04:30.023Z,10.30
2023-01-21T21:09:36.124Z,10.47
2023-01-21T21:14:37.773Z,10.23
2023-01-21T21:19:39.333Z,10.80
2023-01-21T21:24:41.082Z,10.20
2023-01-21T21:29:42.617Z,10.60
2023-01-21T21:34:44.227Z,10.37
2023-01-21T21:39:46.243Z,10.33
2023-01-21T21:44:47.879Z,10.23
2023-01-21T21:49:50.315Z,10.60
2023-01-21T21:54:53.195Z,10.80
2023-01-21T21:59:54.785Z,11.03
2023-01-21T22:04:56.402Z,10.57
2023-01-21T22:09:58.311Z,10.70
2023-01-21T22:14:59.945Z,12.00
2023-01-21T22:20:02.615Z,11.17
2023-01-21T22:25:04.725Z,12.33
2023-01-21T22:30:08.045Z,11.30
2023-01-21T22:35:09.878Z,11.67
2023-01-21T22:40:12.134Z,11.80
2023-01-21T22:45:13.803Z,11.37
2023-01-21T22:50:15.780Z,11.83
2023-01-21T22:55:17.993Z,12.57
2023-01-21T23:00:33.808Z,11.10
2023-01-21T23:05:35.782Z,11.00
2023-01-21T23:10:37.529Z,11.43
2023-01-21T23:15:46.963Z,12.27
2023-01-21T23:20:48.863Z,11.47
2023-01-21T23:25:50.859Z,11.30
2023-01-21T23:30:52.556Z,10.57
2023-01-21T23:35:59.984Z,12.30
2023-01-21T23:41:08.249Z,12.23
2023-01-21T23:46:13.417Z,12.10
2023-01-21T23:51:16.739Z,12.23
2023-01-21T23:56:23.511Z,11.10
